createdAt,value
2022-09-15T00:01:11.682Z,2.42
2022-09-15T00:03:39.411Z,2.50
2022-09-15T00:06:06.680Z,2.35
2022-09-15T00:08:33.507Z,2.45
2022-09-15T00:11:14.791Z,2.40
2022-09-15T00:13:41.863Z,2.60
2022-09-15T00:16:11.665Z,2.65
2022-09-15T00:18:41.716Z,3.00
2022-09-15T00:21:11.248Z,3.40
2022-09-15T00:23:38.663Z,2.95
2022-09-15T00:26:10.220Z,3.08
2022-09-15T00:28:37.747Z,3.10
2022-09-15T00:31:09.708Z,3.00
2022-09-15T00:34:10.454Z,2.83
2022-09-15T00:36:37.194Z,3.25
2022-09-15T00:39:04.789Z,2.90
2022-09-15T00:41:31.512Z,3.00
2022-09-15T00:44:04.368Z,3.22
2022-09-15T00:46:37.003Z,3.90
2022-09-15T00:49:24.450Z,3.40
2022-09-15T00:52:08.584Z,3.53
2022-09-15T00:54:37.565Z,3.58
2022-09-15T00:57:11.610Z,3.78
2022-09-15T00:59:40.332Z,3.30
2022-09-15T01:02:23.602Z,3.60
2022-09-15T01:04:57.386Z,3.53
2022-09-15T01:07:35.524Z,3.90
2022-09-15T01:10:08.281Z,3.58
2022-09-15T01:12:34.963Z,3.30
2022-09-15T01:15:01.940Z,3.33
2022-09-15T01:17:40.271Z,3.35
2022-09-15T01:20:16.023Z,3.17
2022-09-15T01:23:00.261Z,2.70
2022-09-15T01:26:10.055Z,3.00
2022-09-15T01:28:39.435Z,2.60
2022-09-15T01:32:04.709Z,2.22
2022-09-15T01:34:41.679Z,2.58
2022-09-15T01:37:16.491Z,2.75
2022-09-15T01:39:48.070Z,2.38
2022-09-15T01:42:17.191Z,2.47
2022-09-15T01:44:55.665Z,2.70
2022-09-15T01:47:24.361Z,2.53
2022-09-15T01:49:56.522Z,2.60
2022-09-15T01:52:24.653Z,2.35
2022-09-15T01:54:55.888Z,2.58
2022-09-15T01:57:23.058Z,2.67
2022-09-15T01:59:51.412Z,2.40
2022-09-15T02:02:24.995Z,2.60
2022-09-15T02:05:20.614Z,2.45
2022-09-15T02:07:59.045Z,2.60
2022-09-15T02:10:37.216Z,3.15
2022-09-15T02:13:17.960Z,4.15
2022-09-15T02:15:48.451Z,4.72
2022-09-15T02:18:32.775Z,4.00
2022-09-15T02:21:08.788Z,4.78
2022-09-15T02:23:40.192Z,3.97
2022-09-15T02:26:17.422Z,4.00
2022-09-15T02:28:47.775Z,3.92
2022-09-15T02:31:17.920Z,3.88
2022-09-15T02:36:34.097Z,3.67
2022-09-15T02:39:07.791Z,3.83
2022-09-15T02:41:36.662Z,3.33
2022-09-15T02:44:03.784Z,3.20
2022-09-15T02:46:30.288Z,3.00
2022-09-15T02:48:57.005Z,3.00
2022-09-15T02:51:23.500Z,2.92
2022-09-15T02:53:50.073Z,2.88
2022-09-15T02:56:17.180Z,3.03
2022-09-15T02:58:44.089Z,2.85
2022-09-15T03:01:15.096Z,2.60
2022-09-15T03:03:44.373Z,2.70
2022-09-15T03:06:19.663Z,2.40
2022-09-15T03:08:54.644Z,2.72
2022-09-15T03:11:23.938Z,3.03
2022-09-15T03:13:55.044Z,3.00
2022-09-15T03:16:21.947Z,3.25
2022-09-15T03:18:48.976Z,2.97
2022-09-15T03:21:17.242Z,3.25
2022-09-15T03:23:44.559Z,2.90
2022-09-15T03:26:11.695Z,3.60
2022-09-15T03:28:39.067Z,4.57
2022-09-15T03:31:06.983Z,5.00
2022-09-15T03:33:34.019Z,6.93
2022-09-15T03:36:00.763Z,5.88
2022-09-15T03:38:27.309Z,5.10
2022-09-15T03:41:12.467Z,5.10
2022-09-15T03:43:40.062Z,5.50
2022-09-15T03:46:08.135Z,5.32
2022-09-15T03:48:36.276Z,5.32
2022-09-15T03:51:04.434Z,5.43
2022-09-15T03:53:33.461Z,5.68
2022-09-15T03:56:24.978Z,6.18
2022-09-15T03:58:52.227Z,6.72
2022-09-15T04:01:19.905Z,6.78
2022-09-15T04:03:50.845Z,5.57
2022-09-15T04:06:19.442Z,6.32
2022-09-15T04:08:46.011Z,6.38
2022-09-15T04:11:13.670Z,6.72
2022-09-15T04:13:42.069Z,7.40
2022-09-15T04:16:11.508Z,7.93
2022-09-15T04:18:38.419Z,8.23
2022-09-15T04:21:08.337Z,8.85
2022-09-15T04:23:35.240Z,9.85
2022-09-15T04:26:07.519Z,10.13
2022-09-15T04:28:36.483Z,9.55
2022-09-15T04:31:06.013Z,8.13
2022-09-15T04:33:33.006Z,6.97
2022-09-15T04:36:00.894Z,5.90
2022-09-15T04:38:27.984Z,6.85
2022-09-15T04:40:55.443Z,7.00
2022-09-15T04:43:22.258Z,8.00
2022-09-15T04:45:49.219Z,9.05
2022-09-15T04:48:15.691Z,9.25
2022-09-15T04:50:42.612Z,8.40
2022-09-15T04:53:09.259Z,8.18
2022-09-15T04:55:36.275Z,5.32
2022-09-15T04:58:03.578Z,5.80
2022-09-15T05:00:32.067Z,6.03
2022-09-15T05:02:59.583Z,6.47
2022-09-15T05:05:26.956Z,6.22
2022-09-15T05:07:53.584Z,7.68
2022-09-15T05:10:20.493Z,6.97
2022-09-15T05:12:46.955Z,6.85
2022-09-15T05:15:13.455Z,6.25
2022-09-15T05:17:40.057Z,5.93
2022-09-15T05:20:06.752Z,5.20
2022-09-15T05:22:33.394Z,4.38
2022-09-15T05:25:00.001Z,3.72
2022-09-15T05:27:26.480Z,4.22
2022-09-15T05:30:09.785Z,4.10
2022-09-15T05:32:39.463Z,4.00
2022-09-15T05:35:06.897Z,3.70
2022-09-15T05:37:33.774Z,3.75
2022-09-15T05:40:00.561Z,3.88
2022-09-15T05:42:30.233Z,3.40
2022-09-15T05:44:56.741Z,5.00
2022-09-15T05:47:23.747Z,5.50
2022-09-15T05:49:50.737Z,3.65
2022-09-15T05:52:17.237Z,3.78
2022-09-15T05:54:43.748Z,3.78
2022-09-15T05:57:10.294Z,3.33
2022-09-15T05:59:39.151Z,3.50
2022-09-15T06:02:05.996Z,3.28
2022-09-15T06:04:34.143Z,3.42
2022-09-15T06:07:00.705Z,3.55
2022-09-15T06:09:27.291Z,2.90
2022-09-15T06:11:53.801Z,2.80
2022-09-15T06:14:20.676Z,2.70
2022-09-15T06:16:50.076Z,2.90
2022-09-15T06:19:16.725Z,2.70
2022-09-15T06:21:43.421Z,2.70
2022-09-15T06:24:12.412Z,3.00
2022-09-15T06:26:39.095Z,2.90
2022-09-15T06:29:06.000Z,2.75
2022-09-15T06:31:33.720Z,2.67
2022-09-15T06:34:00.683Z,2.70
2022-09-15T06:36:29.693Z,2.67
2022-09-15T06:38:57.052Z,2.80
2022-09-15T06:41:23.837Z,2.83
2022-09-15T06:43:50.497Z,2.20
2022-09-15T06:46:20.062Z,2.30
2022-09-15T06:48:48.480Z,2.40
2022-09-15T06:51:17.120Z,2.28
2022-09-15T06:53:44.615Z,2.25
2022-09-15T06:56:22.717Z,2.50
2022-09-15T06:58:50.171Z,2.45
2022-09-15T07:01:22.780Z,2.38
2022-09-15T07:03:50.219Z,2.15
2022-09-15T07:06:17.117Z,2.78
2022-09-15T07:08:44.264Z,3.22
2022-09-15T07:11:11.113Z,3.63
2022-09-15T07:13:38.030Z,2.60
2022-09-15T07:16:07.484Z,2.20
2022-09-15T07:18:34.430Z,2.15
2022-09-15T07:21:03.292Z,2.10
2022-09-15T07:23:30.396Z,1.90
2022-09-15T07:26:13.571Z,1.85
2022-09-15T07:28:42.332Z,1.70
2022-09-15T07:31:11.247Z,1.52
2022-09-15T07:33:37.977Z,1.50
2022-09-15T07:36:06.661Z,1.20
2022-09-15T07:38:34.739Z,1.30
2022-09-15T07:41:22.166Z,1.40
2022-09-15T07:43:50.572Z,1.40
2022-09-15T07:46:19.066Z,1.40
2022-09-15T07:48:51.469Z,1.35
2022-09-15T07:51:19.457Z,1.55
2022-09-15T07:53:47.979Z,1.75
2022-09-15T07:56:15.455Z,1.70
2022-09-15T07:58:42.046Z,1.60
2022-09-15T08:01:14.912Z,1.70
2022-09-15T08:03:43.064Z,1.90
2022-09-15T08:06:10.648Z,1.50
2022-09-15T08:08:38.840Z,1.50
2022-09-15T08:11:11.480Z,1.60
2022-09-15T08:13:40.951Z,1.70
2022-09-15T08:16:09.252Z,1.70
2022-09-15T08:18:36.660Z,1.67
2022-09-15T08:21:07.436Z,1.70
2022-09-15T08:23:34.211Z,1.60
2022-09-15T08:26:01.259Z,1.50
2022-09-15T08:28:28.083Z,1.50
2022-09-15T08:31:02.545Z,1.60
2022-09-15T08:33:30.107Z,1.40
2022-09-15T08:36:01.979Z,1.60
2022-09-15T08:38:28.743Z,1.40
2022-09-15T08:41:19.034Z,1.30
2022-09-15T08:43:53.387Z,1.50
2022-09-15T08:46:30.380Z,1.60
2022-09-15T08:49:50.077Z,1.70
2022-09-15T08:52:39.250Z,1.98
2022-09-15T08:55:17.767Z,1.67
2022-09-15T08:57:45.047Z,1.50
2022-09-15T09:00:16.578Z,1.50
2022-09-15T09:02:58.860Z,1.40
2022-09-15T09:05:40.717Z,1.50
2022-09-15T09:09:01.372Z,1.20
2022-09-15T09:11:57.063Z,1.40
2022-09-15T09:14:47.425Z,1.27
2022-09-15T09:17:35.356Z,1.20
2022-09-15T09:20:14.242Z,1.30
2022-09-15T09:22:45.137Z,1.38
2022-09-15T09:25:27.370Z,1.10
2022-09-15T09:27:58.321Z,1.30
2022-09-15T09:30:29.751Z,1.30
2022-09-15T09:33:34.371Z,1.23
2022-09-15T09:36:02.197Z,1.40
2022-09-15T09:38:35.029Z,1.40
2022-09-15T09:41:04.875Z,1.50
2022-09-15T09:43:32.808Z,1.92
2022-09-15T09:45:59.813Z,1.63
2022-09-15T09:48:28.511Z,1.65
2022-09-15T09:50:55.294Z,1.67
2022-09-15T09:53:31.155Z,1.50
2022-09-15T09:56:22.947Z,1.33
2022-09-15T09:58:49.834Z,1.40
2022-09-15T10:01:24.548Z,1.25
2022-09-15T10:04:12.458Z,1.20
2022-09-15T10:06:40.083Z,1.20
2022-09-15T10:09:16.411Z,1.27
2022-09-15T10:11:54.822Z,1.30
2022-09-15T10:14:39.835Z,1.55
2022-09-15T10:17:10.602Z,1.40
2022-09-15T10:19:42.865Z,1.70
2022-09-15T10:22:10.257Z,1.52
2022-09-15T10:24:39.890Z,1.30
2022-09-15T10:27:17.453Z,1.17
2022-09-15T10:29:43.997Z,1.70
2022-09-15T10:32:25.213Z,1.30
2022-09-15T10:35:00.545Z,2.20
2022-09-15T10:37:52.175Z,1.42
2022-09-15T10:40:33.048Z,1.70
2022-09-15T10:43:30.754Z,1.20
2022-09-15T10:46:13.973Z,1.40
2022-09-15T10:48:45.554Z,1.10
2022-09-15T10:51:18.119Z,0.90
2022-09-15T10:54:20.198Z,0.95
2022-09-15T10:56:51.974Z,1.40
2022-09-15T10:59:44.248Z,1.50
2022-09-15T11:02:31.623Z,1.30
2022-09-15T11:05:12.982Z,1.40
2022-09-15T11:08:17.068Z,1.60
2022-09-15T11:11:04.992Z,1.77
2022-09-15T11:13:41.084Z,2.30
2022-09-15T11:16:35.756Z,1.70
2022-09-15T11:19:31.171Z,1.40
2022-09-15T11:22:15.945Z,1.63
2022-09-15T11:25:13.381Z,1.02
2022-09-15T11:27:54.094Z,1.10
2022-09-15T11:30:25.550Z,1.05
2022-09-15T11:33:00.456Z,1.20
2022-09-15T11:35:33.792Z,1.05
2022-09-15T11:38:21.314Z,1.20
2022-09-15T11:40:55.271Z,1.08
2022-09-15T11:43:34.027Z,1.10
2022-09-15T11:46:07.254Z,1.00
2022-09-15T11:48:43.462Z,1.00
2022-09-15T11:51:13.297Z,1.00
2022-09-15T11:53:56.065Z,1.00
2022-09-15T11:56:28.934Z,0.95
2022-09-15T11:59:33.482Z,1.05
2022-09-15T12:02:42.478Z,1.00
2022-09-15T12:05:58.730Z,1.00
2022-09-15T12:08:37.445Z,1.00
2022-09-15T12:11:10.813Z,1.00
2022-09-15T12:13:40.051Z,1.17
2022-09-15T12:16:07.313Z,1.10
2022-09-15T12:18:53.263Z,1.00
2022-09-15T12:22:08.877Z,1.00
2022-09-15T12:24:43.942Z,0.90
2022-09-15T12:27:20.987Z,0.90
2022-09-15T12:29:52.278Z,0.90
2022-09-15T12:32:23.228Z,1.00
2022-09-15T12:35:24.697Z,1.10
2022-09-15T12:37:57.302Z,0.93
2022-09-15T12:40:34.888Z,1.20
2022-09-15T12:43:20.947Z,0.90
2022-09-15T12:46:00.216Z,0.90
2022-09-15T12:48:31.092Z,1.10
2022-09-15T12:51:07.433Z,1.00
2022-09-15T12:53:55.176Z,1.20
2022-09-15T12:56:25.524Z,1.08
2022-09-15T12:58:53.464Z,1.00
2022-09-15T13:01:23.194Z,0.93
2022-09-15T13:03:49.739Z,1.10
2022-09-15T13:06:30.200Z,1.00
2022-09-15T13:09:03.083Z,1.20
2022-09-15T13:14:24.532Z,1.00
2022-09-15T13:16:59.689Z,1.02
2022-09-15T13:19:41.461Z,1.00
2022-09-15T13:22:10.947Z,1.17
2022-09-15T13:25:02.351Z,0.93
2022-09-15T13:27:37.064Z,1.05
2022-09-15T13:30:36.340Z,1.08
2022-09-15T13:40:15.508Z,1.20
2022-09-15T13:42:59.543Z,1.20
2022-09-15T13:45:37.720Z,1.10
2022-09-15T13:48:29.475Z,1.15
2022-09-15T13:51:02.646Z,1.17
2022-09-15T13:53:47.400Z,1.30
2022-09-15T13:56:22.181Z,1.20
2022-09-15T13:59:01.549Z,1.15
2022-09-15T14:01:39.024Z,1.08
2022-09-15T14:06:40.537Z,1.20
2022-09-15T14:09:18.013Z,1.50
2022-09-15T14:11:48.703Z,1.25
2022-09-15T14:14:27.542Z,1.30
2022-09-15T14:16:56.489Z,1.30
2022-09-15T14:19:39.718Z,1.40
2022-09-15T14:22:26.133Z,1.38
2022-09-15T14:24:53.229Z,1.20
2022-09-15T14:27:24.362Z,1.40
2022-09-15T14:29:55.172Z,2.33
2022-09-15T14:32:22.127Z,1.40
2022-09-15T14:34:49.056Z,1.60
2022-09-15T14:37:34.962Z,1.38
2022-09-15T14:40:16.592Z,1.40
2022-09-15T14:42:43.270Z,1.50
2022-09-15T14:48:01.404Z,1.70
2022-09-15T14:50:32.815Z,1.70
2022-09-15T14:53:05.681Z,1.60
2022-09-15T14:55:43.304Z,1.50
2022-09-15T14:58:21.776Z,1.77
2022-09-15T15:00:57.599Z,2.15
2022-09-15T15:03:34.268Z,1.90
2022-09-15T15:09:00.546Z,1.83
2022-09-15T15:11:29.018Z,1.80
2022-09-15T15:13:56.997Z,1.50
2022-09-15T15:16:28.537Z,1.60
2022-09-15T15:18:57.084Z,1.80
2022-09-15T15:21:41.925Z,1.88
2022-09-15T15:24:17.295Z,1.75
2022-09-15T15:26:49.851Z,1.83
2022-09-15T15:29:38.350Z,1.73
2022-09-15T15:32:06.673Z,1.80
2022-09-15T15:34:33.972Z,1.80
2022-09-15T15:37:05.030Z,1.90
2022-09-15T15:39:31.870Z,1.65
2022-09-15T15:42:02.108Z,2.00
2022-09-15T15:44:30.190Z,2.03
2022-09-15T15:47:19.647Z,1.90
2022-09-15T15:50:11.756Z,1.90
2022-09-15T15:52:33.575Z,2.70
2022-09-15T15:55:00.279Z,4.60
2022-09-15T15:57:30.247Z,2.50
2022-09-15T15:59:58.916Z,2.60
2022-09-15T16:02:26.350Z,2.58
2022-09-15T16:04:52.968Z,2.70
2022-09-15T16:07:23.015Z,2.47
2022-09-15T16:12:16.893Z,2.13
2022-09-15T16:14:43.343Z,2.20
2022-09-15T16:17:10.792Z,2.10
2022-09-15T16:19:37.305Z,2.17
2022-09-15T16:22:04.107Z,2.00
2022-09-15T16:24:31.082Z,2.13
2022-09-15T16:26:58.469Z,2.20
2022-09-15T16:29:29.175Z,2.58
2022-09-15T16:31:55.696Z,2.72
2022-09-15T16:34:22.585Z,2.90
2022-09-15T16:36:49.139Z,3.20
2022-09-15T16:39:15.659Z,3.15
2022-09-15T16:41:42.507Z,3.10
2022-09-15T16:44:17.994Z,3.10
2022-09-15T16:46:44.794Z,2.40
2022-09-15T16:49:11.327Z,2.58
2022-09-15T16:51:37.808Z,2.30
2022-09-15T16:54:14.166Z,2.15
2022-09-15T16:56:41.488Z,2.38
2022-09-15T16:59:09.256Z,3.17
2022-09-15T17:01:35.762Z,3.20
2022-09-15T17:04:03.759Z,3.00
2022-09-15T17:06:30.975Z,3.00
2022-09-15T17:08:57.559Z,4.53
2022-09-15T17:11:25.451Z,4.78
2022-09-15T17:13:52.000Z,4.00
2022-09-15T17:16:19.702Z,4.00
2022-09-15T17:18:46.903Z,3.35
2022-09-15T17:21:15.994Z,4.25
2022-09-15T17:23:49.904Z,4.50
2022-09-15T17:26:23.958Z,5.22
2022-09-15T17:28:52.235Z,5.85
2022-09-15T17:31:23.703Z,6.28
2022-09-15T17:33:51.173Z,5.90
2022-09-15T17:36:19.522Z,5.13
2022-09-15T17:38:49.018Z,6.00
2022-09-15T17:41:18.867Z,6.40
2022-09-15T17:43:46.018Z,4.97
2022-09-15T17:46:12.728Z,4.80
2022-09-15T17:48:39.999Z,3.25
2022-09-15T17:51:07.763Z,3.45
2022-09-15T17:53:34.342Z,5.57
2022-09-15T17:56:01.082Z,3.40
2022-09-15T17:58:29.946Z,3.10
2022-09-15T18:00:57.472Z,2.83
2022-09-15T18:03:34.766Z,3.20
2022-09-15T18:06:05.251Z,3.28
2022-09-15T18:08:33.190Z,3.60
2022-09-15T18:11:00.843Z,3.58
2022-09-15T18:13:29.736Z,4.50
2022-09-15T18:15:57.290Z,4.45
2022-09-15T18:18:27.230Z,4.75
2022-09-15T18:20:55.744Z,4.47
2022-09-15T18:23:24.893Z,4.90
2022-09-15T18:25:52.053Z,5.00
2022-09-15T18:28:19.405Z,5.47
2022-09-15T18:30:49.094Z,5.18
2022-09-15T18:33:19.289Z,5.18
2022-09-15T18:35:46.715Z,6.22
2022-09-15T18:38:13.313Z,5.47
2022-09-15T18:40:45.228Z,5.55
2022-09-15T18:43:12.082Z,5.07
2022-09-15T18:45:40.270Z,5.68
2022-09-15T18:48:11.905Z,4.50
2022-09-15T18:50:39.531Z,4.60
2022-09-15T18:53:06.383Z,4.50
2022-09-15T18:55:32.938Z,3.53
2022-09-15T18:58:01.080Z,3.70
2022-09-15T19:00:28.859Z,3.90
2022-09-15T19:02:58.359Z,3.50
2022-09-15T19:05:26.731Z,3.45
2022-09-15T19:07:53.479Z,3.63
2022-09-15T19:10:20.365Z,3.47
2022-09-15T19:12:46.997Z,3.85
2022-09-15T19:15:14.847Z,3.25
2022-09-15T19:17:42.488Z,3.40
2022-09-15T19:20:12.513Z,3.03
2022-09-15T19:25:08.392Z,4.68
2022-09-15T19:27:37.606Z,4.30
2022-09-15T19:30:05.625Z,3.97
2022-09-15T19:32:32.662Z,3.80
2022-09-15T19:34:59.334Z,3.33
2022-09-15T19:37:26.065Z,3.63
2022-09-15T19:39:59.017Z,3.20
2022-09-15T19:42:40.371Z,3.22
2022-09-15T19:45:15.604Z,2.90
2022-09-15T19:47:42.091Z,3.13
2022-09-15T19:50:11.217Z,3.00
2022-09-15T19:52:38.118Z,2.90
2022-09-15T19:55:06.773Z,2.95
2022-09-15T19:57:42.107Z,2.80
2022-09-15T20:00:54.500Z,3.03
2022-09-15T20:03:27.021Z,2.63
2022-09-15T20:05:56.506Z,3.10
2022-09-15T20:08:23.509Z,3.00
2022-09-15T20:10:50.742Z,3.10
2022-09-15T20:13:18.462Z,2.90
2022-09-15T20:15:56.141Z,3.53
2022-09-15T20:18:23.502Z,3.55
2022-09-15T20:20:50.208Z,3.20
2022-09-15T20:23:17.321Z,2.90
2022-09-15T20:25:55.158Z,2.85
2022-09-15T20:28:22.559Z,2.60
2022-09-15T20:31:11.727Z,2.92
2022-09-15T20:33:40.558Z,3.00
2022-09-15T20:36:10.492Z,3.15
2022-09-15T20:38:38.280Z,3.00
2022-09-15T20:41:07.333Z,2.50
2022-09-15T20:43:38.849Z,2.90
2022-09-15T20:46:08.074Z,2.70
2022-09-15T20:48:39.145Z,2.92
2022-09-15T20:51:12.647Z,3.30
2022-09-15T20:53:41.368Z,2.72
2022-09-15T20:56:08.437Z,2.70
2022-09-15T20:58:36.965Z,2.70
2022-09-15T21:01:06.268Z,2.63
2022-09-15T21:03:33.447Z,2.72
2022-09-15T21:06:01.782Z,2.63
2022-09-15T21:08:29.180Z,2.80
2022-09-15T21:10:56.403Z,2.53
2022-09-15T21:13:23.131Z,2.53
2022-09-15T21:16:00.804Z,2.53
2022-09-15T21:18:29.331Z,2.42
2022-09-15T21:21:01.337Z,2.47
2022-09-15T21:23:34.384Z,2.50
2022-09-15T21:26:28.891Z,2.30
2022-09-15T21:28:57.199Z,2.50
2022-09-15T21:31:29.912Z,2.78
2022-09-15T21:33:58.044Z,2.40
2022-09-15T21:36:29.714Z,2.38
2022-09-15T21:38:58.640Z,2.20
2022-09-15T21:41:31.652Z,2.20
2022-09-15T21:43:59.258Z,2.50
2022-09-15T21:46:28.552Z,2.58
2022-09-15T21:48:56.534Z,2.40
2022-09-15T21:51:25.157Z,2.33
2022-09-15T21:53:53.380Z,2.35
2022-09-15T21:56:20.725Z,2.38
2022-09-15T21:58:47.711Z,2.42
2022-09-15T22:01:18.959Z,2.20
2022-09-15T22:03:54.129Z,2.22
2022-09-15T22:06:23.353Z,2.30
2022-09-15T22:11:36.420Z,2.30
2022-09-15T22:14:57.534Z,2.28
2022-09-15T22:17:51.141Z,2.50
2022-09-15T22:20:18.724Z,2.45
2022-09-15T22:23:11.847Z,2.40
2022-09-15T22:25:38.993Z,2.47
2022-09-15T22:28:05.635Z,2.60
2022-09-15T22:30:32.269Z,2.72
2022-09-15T22:32:58.820Z,2.50
2022-09-15T22:35:25.698Z,2.58
2022-09-15T22:37:52.411Z,2.60
2022-09-15T22:40:19.039Z,2.72
2022-09-15T22:42:45.783Z,2.45
2022-09-15T22:45:12.490Z,2.42
2022-09-15T22:47:39.165Z,2.35
2022-09-15T22:50:06.187Z,2.40
2022-09-15T22:52:32.833Z,2.60
2022-09-15T22:54:59.452Z,2.47
2022-09-15T22:57:26.017Z,2.60
2022-09-15T22:59:52.656Z,2.08
2022-09-15T23:02:19.353Z,2.67
2022-09-15T23:04:45.971Z,2.42
2022-09-15T23:07:12.526Z,2.60
2022-09-15T23:09:39.604Z,2.63
2022-09-15T23:12:07.879Z,2.75
2022-09-15T23:14:34.613Z,2.83
2022-09-15T23:17:01.083Z,2.70
2022-09-15T23:19:27.569Z,2.40
2022-09-15T23:21:54.180Z,2.80
2022-09-15T23:24:20.915Z,2.90
2022-09-15T23:26:47.451Z,2.40
2022-09-15T23:29:14.034Z,2.30
2022-09-15T23:31:40.595Z,2.40
2022-09-15T23:34:07.210Z,2.47
2022-09-15T23:36:33.851Z,2.30
2022-09-15T23:39:00.328Z,2.40
2022-09-15T23:41:26.892Z,2.58
2022-09-15T23:43:53.407Z,2.60
2022-09-15T23:46:20.037Z,2.35
2022-09-15T23:48:46.651Z,2.55
2022-09-15T23:51:16.084Z,2.70
2022-09-15T23:53:42.685Z,2.70
2022-09-15T23:56:09.363Z,2.50
2022-09-15T23:58:36.085Z,2.40
